Rochelle, Illinois
Current Conditions -  °F | °C
As of 10:35 AM on Friday 24 Oct 2014 (Local Time) from KRPJ Reporting Station
Haze Haze  
Wind Chill: 50°   Ceiling: 400
Heat Index: 50°   Visibility: 5mi
Dew Point: 49°   Wind: 0mph
Humidity: 95%   Direction: NA
Pressure: 30.07"   Gusts: NA
Location:  41.93°N, 89.07°W
Report Text: KRPJ 241535Z AUTO 00000KT 5SM BR OVC004 10/09 A3007 RMK AO2 T01010093
Loading
Personal Weather Stations






























Interactive Weather Map New forecast layout! Learn more

10-Day Weather Forecast

Advertisements
Track Severe Weather on mobile